createdAt,value
2022-11-16T00:02:07.744Z,9.82
2022-11-16T00:07:26.487Z,9.85
2022-11-16T00:12:46.062Z,9.89
2022-11-16T00:18:05.750Z,9.92
2022-11-16T00:23:25.262Z,9.79
2022-11-16T00:28:44.646Z,9.68
2022-11-16T00:34:03.864Z,9.75
2022-11-16T00:39:23.196Z,9.68
2022-11-16T00:44:42.308Z,9.45
2022-11-16T00:50:01.040Z,9.24
2022-11-16T00:55:19.907Z,9.42
2022-11-16T01:00:38.730Z,9.68
2022-11-16T01:05:58.046Z,9.85
2022-11-16T01:11:17.643Z,9.83
2022-11-16T01:16:37.134Z,9.79
2022-11-16T01:21:56.852Z,9.67
2022-11-16T01:27:16.275Z,9.55
2022-11-16T01:32:35.368Z,9.38
2022-11-16T01:37:54.297Z,9.14
2022-11-16T01:43:21.635Z,9.1
2022-11-16T01:48:33.355Z,9.14
2022-11-16T01:53:52.018Z,9.1
2022-11-16T01:59:11.238Z,9.13
2022-11-16T02:04:30.975Z,9.18
2022-11-16T02:09:49.952Z,9.16
2022-11-16T02:15:09.625Z,9.21
2022-11-16T02:20:28.997Z,9.18
2022-11-16T02:25:48.642Z,9.1
2022-11-16T02:31:08.282Z,8.93
2022-11-16T02:36:28.000Z,8.87
2022-11-16T02:41:46.859Z,8.91
2022-11-16T02:47:05.995Z,9.04
2022-11-16T02:52:25.228Z,9.06
2022-11-16T02:57:44.747Z,8.99
2022-11-16T03:03:04.119Z,8.93
2022-11-16T03:08:23.048Z,8.99
2022-11-16T03:13:42.747Z,9.09
2022-11-16T03:19:02.479Z,9.22
2022-11-16T03:24:21.790Z,9.3
2022-11-16T03:29:40.899Z,9.13
2022-11-16T03:35:00.356Z,9.22
2022-11-16T03:40:19.751Z,9.32
2022-11-16T03:45:39.009Z,9.34
2022-11-16T03:50:58.198Z,9.28
2022-11-16T03:56:17.158Z,9.24
2022-11-16T04:01:39.244Z,9.2
2022-11-16T04:06:55.068Z,9.22
2022-11-16T04:12:14.151Z,9.27
2022-11-16T04:17:33.745Z,9.28
2022-11-16T04:22:53.164Z,9.38
2022-11-16T04:28:12.815Z,9.45
2022-11-16T04:33:32.454Z,9.43
2022-11-16T04:39:01.230Z,9.47
2022-11-16T04:44:10.374Z,9.51
2022-11-16T04:49:30.115Z,9.57
2022-11-16T04:54:49.828Z,9.62
2022-11-16T05:00:16.884Z,9.59
2022-11-16T05:05:27.877Z,9.62
2022-11-16T05:10:56.148Z,9.57
2022-11-16T05:16:06.744Z,9.57
2022-11-16T05:21:25.720Z,9.55
2022-11-16T05:26:44.503Z,9.52
2022-11-16T05:32:04.069Z,9.51
2022-11-16T05:37:23.495Z,9.52
2022-11-16T05:42:42.713Z,9.55
2022-11-16T05:48:12.253Z,9.55
2022-11-16T05:53:21.462Z,9.59
2022-11-16T05:58:40.331Z,9.6
2022-11-16T06:03:59.176Z,9.63
2022-11-16T06:09:26.431Z,9.77
2022-11-16T06:14:37.516Z,9.82
2022-11-16T06:19:56.806Z,9.82
2022-11-16T06:25:15.868Z,9.85
2022-11-16T06:30:35.168Z,9.91
2022-11-16T06:35:54.774Z,9.85
2022-11-16T06:41:13.820Z,9.81
2022-11-16T06:46:33.286Z,9.82
2022-11-16T06:51:52.798Z,9.83
2022-11-16T06:57:12.414Z,9.85
2022-11-16T07:02:31.519Z,9.85
2022-11-16T07:07:58.400Z,9.88
2022-11-16T07:13:18.741Z,9.89
2022-11-16T07:18:39.664Z,9.89
2022-11-16T07:23:48.912Z,9.85
2022-11-16T07:29:07.665Z,9.88
2022-11-16T07:34:26.661Z,9.92
2022-11-16T07:39:54.679Z,9.89
2022-11-16T07:45:05.344Z,9.96
2022-11-16T07:50:24.981Z,10
2022-11-16T07:55:44.248Z,10.06
2022-11-16T08:01:03.841Z,10.08
2022-11-16T08:06:22.523Z,10.1
2022-11-16T08:11:42.126Z,10.17
2022-11-16T08:17:01.060Z,10.26
2022-11-16T08:22:20.257Z,10.32
2022-11-16T08:27:39.991Z,10.39
2022-11-16T08:32:59.685Z,10.43
2022-11-16T08:38:18.147Z,10.47
2022-11-16T08:43:37.751Z,10.53
2022-11-16T08:48:57.006Z,10.54
2022-11-16T08:54:16.817Z,10.6
2022-11-16T08:59:35.750Z,10.74
2022-11-16T09:04:54.802Z,10.82
2022-11-16T09:10:14.722Z,10.98
2022-11-16T09:15:34.156Z,11.22
2022-11-16T09:21:02.516Z,11.39
2022-11-16T09:26:12.863Z,11.29
2022-11-16T09:31:32.273Z,11.35
2022-11-16T09:36:51.763Z,11.65
2022-11-16T09:42:10.588Z,11.52
2022-11-16T09:47:29.309Z,11.38
2022-11-16T09:52:48.434Z,11.39
2022-11-16T09:58:07.722Z,11.5
2022-11-16T10:03:27.327Z,11.63
2022-11-16T10:08:46.555Z,11.59
2022-11-16T10:14:05.487Z,11.74
2022-11-16T10:19:24.884Z,12.07
2022-11-16T10:24:44.297Z,12.1
2022-11-16T10:30:37.406Z,12
2022-11-16T10:35:56.438Z,12.21
2022-11-16T10:41:15.408Z,13.17
2022-11-16T10:46:35.226Z,13
2022-11-16T10:51:54.296Z,12.78
2022-11-16T10:57:13.491Z,12.83
2022-11-16T11:02:32.692Z,13.1
2022-11-16T11:07:56.887Z,12.34
2022-11-16T11:13:12.082Z,11.98
2022-11-16T11:18:30.816Z,11.89
2022-11-16T11:23:49.814Z,11.74
2022-11-16T11:29:08.583Z,11.7
2022-11-16T11:34:27.905Z,11.74
2022-11-16T11:39:47.381Z,11.91
2022-11-16T11:45:07.078Z,12.89
2022-11-16T11:50:26.420Z,13.16
2022-11-16T11:55:45.282Z,12.8
2022-11-16T12:01:04.379Z,12.89
2022-11-16T12:06:23.738Z,13
2022-11-16T12:11:43.177Z,12.92
2022-11-16T12:17:02.279Z,12.59
2022-11-16T12:22:21.507Z,12.31
2022-11-16T12:27:40.487Z,12.07
2022-11-16T12:33:00.067Z,11.98
2022-11-16T12:38:24.964Z,12
2022-11-16T12:43:38.676Z,11.9
2022-11-16T12:48:58.069Z,11.97
2022-11-16T12:54:17.658Z,12.86
2022-11-16T12:59:36.475Z,13.65
2022-11-16T13:04:55.649Z,13.91
2022-11-16T13:11:29.815Z,13.88
2022-11-16T13:15:35.256Z,13.31
2022-11-16T13:20:54.807Z,12.66
2022-11-16T13:26:12.601Z,12.24
2022-11-16T13:31:32.109Z,12.18
2022-11-16T13:36:51.289Z,12.18
2022-11-16T13:42:10.066Z,12.21
2022-11-16T13:47:29.088Z,13.09
2022-11-16T13:58:07.452Z,13.04
2022-11-16T14:03:26.777Z,12.53
2022-11-16T14:08:45.794Z,12.41
2022-11-16T14:14:05.449Z,12.66
2022-11-16T14:19:23.766Z,12.88
2022-11-16T14:24:43.246Z,12.8
2022-11-16T14:30:02.809Z,12.52
2022-11-16T14:35:22.199Z,12.1
2022-11-16T14:40:41.201Z,11.83
2022-11-16T14:46:00.921Z,11.62
2022-11-16T14:51:19.684Z,11.43
2022-11-16T14:56:38.379Z,11.33
2022-11-16T15:01:57.324Z,11.3
2022-11-16T15:07:16.436Z,11.59
2022-11-16T15:12:35.314Z,11.79
2022-11-16T15:17:54.602Z,11.71
2022-11-16T15:23:14.009Z,11.58
2022-11-16T15:28:33.708Z,11.39
2022-11-16T15:33:52.839Z,11.11
2022-11-16T15:39:12.294Z,10.84
2022-11-16T15:44:32.007Z,10.6
2022-11-16T15:49:51.468Z,10.41
2022-11-16T15:55:10.739Z,10.09
2022-11-16T16:00:30.049Z,9.85
2022-11-16T16:05:49.348Z,9.47
2022-11-16T16:11:08.256Z,9.32
2022-11-16T16:16:27.957Z,9.31
2022-11-16T16:21:46.792Z,9.16
2022-11-16T16:27:06.357Z,9.03
2022-11-16T16:32:26.034Z,8.93
2022-11-16T16:37:45.584Z,8.85
2022-11-16T16:43:14.001Z,8.77
2022-11-16T16:48:24.134Z,8.66
2022-11-16T16:53:43.048Z,8.58
2022-11-16T16:59:02.767Z,8.72
2022-11-16T17:04:32.119Z,9.01
2022-11-16T17:09:41.028Z,8.89
2022-11-16T17:14:59.980Z,8.85
2022-11-16T17:20:19.453Z,8.8
2022-11-16T17:25:38.961Z,8.72
2022-11-16T17:30:58.064Z,9.06
2022-11-16T17:36:17.134Z,9.24
2022-11-16T17:41:36.173Z,9.31
2022-11-16T17:46:55.819Z,9.35
2022-11-16T17:52:15.089Z,9.45
2022-11-16T17:57:34.128Z,9.47
2022-11-16T18:02:53.647Z,9.5
2022-11-16T18:08:12.818Z,9.45
2022-11-16T18:13:31.649Z,9.27
2022-11-16T18:18:50.395Z,9.13
2022-11-16T18:24:09.911Z,8.97
2022-11-16T18:29:28.920Z,8.76
2022-11-16T18:34:48.583Z,9.09
2022-11-16T18:40:07.494Z,9.03
2022-11-16T18:45:27.151Z,8.89
2022-11-16T18:50:45.887Z,8.82
2022-11-16T18:56:05.437Z,8.97
2022-11-16T19:01:24.573Z,9.34
2022-11-16T19:06:44.831Z,9.63
2022-11-16T19:12:04.398Z,9.62
2022-11-16T19:17:22.462Z,9.58
2022-11-16T19:22:41.219Z,9.41
2022-11-16T19:28:00.695Z,9.6
2022-11-16T19:33:19.700Z,9.81
2022-11-16T19:38:39.291Z,9.96
2022-11-16T19:43:58.912Z,10
2022-11-16T19:49:19.913Z,9.97
2022-11-16T19:54:37.323Z,9.99
2022-11-16T19:59:57.010Z,9.88
2022-11-16T20:05:16.097Z,9.68
2022-11-16T20:10:35.235Z,9.64
2022-11-16T20:16:04.928Z,9.52
2022-11-16T20:21:13.787Z,9.42
2022-11-16T20:26:33.181Z,9.37
2022-11-16T20:31:52.017Z,9.2
2022-11-16T20:37:11.646Z,9.03
2022-11-16T20:42:30.387Z,8.8
2022-11-16T20:47:49.402Z,8.56
2022-11-16T20:53:08.811Z,8.49
2022-11-16T20:58:27.758Z,8.62
2022-11-16T21:03:47.037Z,8.63
2022-11-16T21:09:06.481Z,8.63
2022-11-16T21:14:26.226Z,8.8
2022-11-16T21:19:59.691Z,8.97
2022-11-16T21:25:04.493Z,9.1
2022-11-16T21:30:24.627Z,9.06
2022-11-16T21:35:43.405Z,9.01
2022-11-16T21:41:01.631Z,8.8
2022-11-16T21:46:20.936Z,8.58
2022-11-16T21:51:40.300Z,8.45
2022-11-16T21:56:59.636Z,8.47
2022-11-16T22:02:19.364Z,8.51
2022-11-16T22:07:38.586Z,8.55
2022-11-16T22:12:57.357Z,8.58
2022-11-16T22:18:16.745Z,8.47
2022-11-16T22:23:36.533Z,8.35
2022-11-16T22:28:55.582Z,8.28
2022-11-16T22:34:15.315Z,8.31
2022-11-16T22:39:35.037Z,8.14
2022-11-16T22:44:54.731Z,8.14
2022-11-16T22:50:14.277Z,8.1
2022-11-16T22:55:33.990Z,8.08
2022-11-16T23:00:52.871Z,8.1
2022-11-16T23:06:12.151Z,8.14
2022-11-16T23:11:31.305Z,8.14
2022-11-16T23:16:50.355Z,8.17
2022-11-16T23:22:09.466Z,7.98
2022-11-16T23:27:28.468Z,7.86
2022-11-16T23:32:47.652Z,7.89
2022-11-16T23:38:06.749Z,8.1
2022-11-16T23:43:26.081Z,8.31
2022-11-16T23:48:45.531Z,8.42
2022-11-16T23:54:05.507Z,8.58
2022-11-16T23:59:24.785Z,8.62
